sensor_id;sensor_type;location;lat;lon;timestamp;temperature;humidity
73509;SHT30;72120;54.964;73.444;2023-08-31T00:02:01;12.16;82.82
73509;SHT30;72120;54.964;73.444;2023-08-31T00:04:29;12.13;82.97
73509;SHT30;72120;54.964;73.444;2023-08-31T00:06:55;12.16;82.96
73509;SHT30;72120;54.964;73.444;2023-08-31T00:09:23;12.10;82.78
73509;SHT30;72120;54.964;73.444;2023-08-31T00:11:50;12.12;82.51
73509;SHT30;72120;54.964;73.444;2023-08-31T00:14:17;12.14;82.52
73509;SHT30;72120;54.964;73.444;2023-08-31T00:16:43;12.16;82.32
73509;SHT30;72120;54.964;73.444;2023-08-31T00:19:13;12.16;82.41
73509;SHT30;72120;54.964;73.444;2023-08-31T00:21:40;12.16;82.53
73509;SHT30;72120;54.964;73.444;2023-08-31T00:24:07;12.17;82.31
73509;SHT30;72120;54.964;73.444;2023-08-31T00:26:36;12.16;81.88
73509;SHT30;72120;54.964;73.444;2023-08-31T00:29:09;12.16;81.66
73509;SHT30;72120;54.964;73.444;2023-08-31T00:31:38;12.13;81.89
73509;SHT30;72120;54.964;73.444;2023-08-31T00:34:05;12.18;81.81
73509;SHT30;72120;54.964;73.444;2023-08-31T00:36:33;12.17;81.52
73509;SHT30;72120;54.964;73.444;2023-08-31T00:39:04;12.17;81.09
73509;SHT30;72120;54.964;73.444;2023-08-31T00:41:40;12.24;80.96
73509;SHT30;72120;54.964;73.444;2023-08-31T00:44:06;12.23;80.82
73509;SHT30;72120;54.964;73.444;2023-08-31T00:46:34;12.17;80.52
73509;SHT30;72120;54.964;73.444;2023-08-31T00:49:00;12.18;80.59
73509;SHT30;72120;54.964;73.444;2023-08-31T00:51:29;12.17;80.38
73509;SHT30;72120;54.964;73.444;2023-08-31T00:53:56;12.24;80.50
73509;SHT30;72120;54.964;73.444;2023-08-31T00:56:26;12.26;80.83
73509;SHT30;72120;54.964;73.444;2023-08-31T00:58:53;12.23;80.66
73509;SHT30;72120;54.964;73.444;2023-08-31T01:01:43;12.20;80.69
73509;SHT30;72120;54.964;73.444;2023-08-31T01:09:34;12.28;80.29
73509;SHT30;72120;54.964;73.444;2023-08-31T01:12:07;12.38;80.00
73509;SHT30;72120;54.964;73.444;2023-08-31T01:15:10;12.41;80.03
73509;SHT30;72120;54.964;73.444;2023-08-31T01:17:44;12.49;79.92
73509;SHT30;72120;54.964;73.444;2023-08-31T01:20:16;12.51;79.51
73509;SHT30;72120;54.964;73.444;2023-08-31T01:22:57;12.55;79.08
73509;SHT30;72120;54.964;73.444;2023-08-31T01:25:26;12.64;79.11
73509;SHT30;72120;54.964;73.444;2023-08-31T01:27:56;12.69;79.33
73509;SHT30;72120;54.964;73.444;2023-08-31T01:30:24;12.75;79.30
73509;SHT30;72120;54.964;73.444;2023-08-31T01:32:52;12.78;78.61
73509;SHT30;72120;54.964;73.444;2023-08-31T01:35:20;12.87;79.68
73509;SHT30;72120;54.964;73.444;2023-08-31T01:37:57;12.88;78.53
73509;SHT30;72120;54.964;73.444;2023-08-31T01:43:18;13.08;77.79
73509;SHT30;72120;54.964;73.444;2023-08-31T01:45:46;13.18;76.54
73509;SHT30;72120;54.964;73.444;2023-08-31T01:48:14;13.24;76.64
73509;SHT30;72120;54.964;73.444;2023-08-31T01:50:41;13.27;76.81
73509;SHT30;72120;54.964;73.444;2023-08-31T01:53:07;13.36;77.19
73509;SHT30;72120;54.964;73.444;2023-08-31T01:55:33;13.36;76.81
73509;SHT30;72120;54.964;73.444;2023-08-31T01:57:59;13.46;76.59
73509;SHT30;72120;54.964;73.444;2023-08-31T02:00:28;13.52;75.83
73509;SHT30;72120;54.964;73.444;2023-08-31T02:02:55;13.62;75.14
73509;SHT30;72120;54.964;73.444;2023-08-31T02:05:22;13.69;75.01
73509;SHT30;72120;54.964;73.444;2023-08-31T02:07:50;13.77;74.95
73509;SHT30;72120;54.964;73.444;2023-08-31T02:10:18;13.84;75.61
73509;SHT30;72120;54.964;73.444;2023-08-31T02:13:04;14.08;74.81
73509;SHT30;72120;54.964;73.444;2023-08-31T02:15:30;16.35;69.37
73509;SHT30;72120;54.964;73.444;2023-08-31T02:17:59;18.51;63.44
73509;SHT30;72120;54.964;73.444;2023-08-31T02:20:25;19.75;59.24
73509;SHT30;72120;54.964;73.444;2023-08-31T02:22:52;20.56;56.95
73509;SHT30;72120;54.964;73.444;2023-08-31T02:25:18;21.38;55.74
73509;SHT30;72120;54.964;73.444;2023-08-31T02:27:46;21.75;53.15
73509;SHT30;72120;54.964;73.444;2023-08-31T02:30:12;22.15;52.62
73509;SHT30;72120;54.964;73.444;2023-08-31T02:32:38;22.52;52.02
73509;SHT30;72120;54.964;73.444;2023-08-31T02:35:04;22.99;51.16
73509;SHT30;72120;54.964;73.444;2023-08-31T02:37:31;23.17;50.84
73509;SHT30;72120;54.964;73.444;2023-08-31T02:39:57;23.20;50.90
73509;SHT30;72120;54.964;73.444;2023-08-31T02:42:26;22.40;51.69
73509;SHT30;72120;54.964;73.444;2023-08-31T02:44:52;21.30;54.11
73509;SHT30;72120;54.964;73.444;2023-08-31T02:47:22;20.39;55.70
73509;SHT30;72120;54.964;73.444;2023-08-31T02:49:51;20.04;57.30
73509;SHT30;72120;54.964;73.444;2023-08-31T02:52:17;19.88;57.31
73509;SHT30;72120;54.964;73.444;2023-08-31T02:54:43;19.74;57.89
73509;SHT30;72120;54.964;73.444;2023-08-31T02:57:09;19.67;57.87
73509;SHT30;72120;54.964;73.444;2023-08-31T02:59:35;19.53;59.09
73509;SHT30;72120;54.964;73.444;2023-08-31T03:02:05;19.43;58.42
73509;SHT30;72120;54.964;73.444;2023-08-31T03:04:36;19.38;59.86
73509;SHT30;72120;54.964;73.444;2023-08-31T03:07:03;19.32;59.59
73509;SHT30;72120;54.964;73.444;2023-08-31T03:09:30;19.35;59.52
73509;SHT30;72120;54.964;73.444;2023-08-31T03:11:59;19.34;60.65
73509;SHT30;72120;54.964;73.444;2023-08-31T03:14:30;19.37;60.11
73509;SHT30;72120;54.964;73.444;2023-08-31T03:16:56;19.46;59.94
73509;SHT30;72120;54.964;73.444;2023-08-31T03:19:22;19.50;60.39
73509;SHT30;72120;54.964;73.444;2023-08-31T03:21:49;19.60;61.03
73509;SHT30;72120;54.964;73.444;2023-08-31T03:24:15;19.78;59.73
73509;SHT30;72120;54.964;73.444;2023-08-31T03:27:04;20.05;58.87
73509;SHT30;72120;54.964;73.444;2023-08-31T03:29:31;20.19;59.03
73509;SHT30;72120;54.964;73.444;2023-08-31T03:32:01;20.36;58.04
73509;SHT30;72120;54.964;73.444;2023-08-31T03:34:33;20.28;59.68
73509;SHT30;72120;54.964;73.444;2023-08-31T03:37:02;20.45;58.30
73509;SHT30;72120;54.964;73.444;2023-08-31T03:39:29;20.76;58.48
73509;SHT30;72120;54.964;73.444;2023-08-31T03:41:58;21.07;57.24
73509;SHT30;72120;54.964;73.444;2023-08-31T03:44:30;21.14;55.90
73509;SHT30;72120;54.964;73.444;2023-08-31T03:46:56;21.41;55.97
73509;SHT30;72120;54.964;73.444;2023-08-31T03:49:25;21.65;55.81
73509;SHT30;72120;54.964;73.444;2023-08-31T03:51:52;21.81;55.69
73509;SHT30;72120;54.964;73.444;2023-08-31T03:54:20;21.91;54.45
73509;SHT30;72120;54.964;73.444;2023-08-31T03:56:46;22.08;54.15
73509;SHT30;72120;54.964;73.444;2023-08-31T03:59:12;22.25;55.10
73509;SHT30;72120;54.964;73.444;2023-08-31T04:01:38;22.40;53.99
73509;SHT30;72120;54.964;73.444;2023-08-31T04:04:05;22.47;53.84
73509;SHT30;72120;54.964;73.444;2023-08-31T04:06:33;22.49;53.78
73509;SHT30;72120;54.964;73.444;2023-08-31T04:08:59;22.57;54.41
73509;SHT30;72120;54.964;73.444;2023-08-31T04:11:25;22.63;55.04
73509;SHT30;72120;54.964;73.444;2023-08-31T04:13:52;22.71;53.77
73509;SHT30;72120;54.964;73.444;2023-08-31T04:16:19;22.70;53.65
73509;SHT30;72120;54.964;73.444;2023-08-31T04:18:45;22.80;54.05
73509;SHT30;72120;54.964;73.444;2023-08-31T04:21:17;22.83;54.19
73509;SHT30;72120;54.964;73.444;2023-08-31T04:23:44;22.83;53.83
73509;SHT30;72120;54.964;73.444;2023-08-31T04:26:12;22.77;53.61
73509;SHT30;72120;54.964;73.444;2023-08-31T04:28:48;22.83;53.38
73509;SHT30;72120;54.964;73.444;2023-08-31T04:31:15;23.00;54.47
73509;SHT30;72120;54.964;73.444;2023-08-31T04:33:41;23.20;54.86
73509;SHT30;72120;54.964;73.444;2023-08-31T04:36:07;23.07;56.55
73509;SHT30;72120;54.964;73.444;2023-08-31T04:38:37;23.18;53.78
73509;SHT30;72120;54.964;73.444;2023-08-31T04:41:03;23.08;53.71
73509;SHT30;72120;54.964;73.444;2023-08-31T04:43:30;23.03;54.18
73509;SHT30;72120;54.964;73.444;2023-08-31T04:45:57;22.93;53.69
73509;SHT30;72120;54.964;73.444;2023-08-31T04:48:23;22.81;54.15
73509;SHT30;72120;54.964;73.444;2023-08-31T04:50:49;22.90;54.36
73509;SHT30;72120;54.964;73.444;2023-08-31T04:53:15;22.89;52.86
73509;SHT30;72120;54.964;73.444;2023-08-31T04:55:42;22.87;52.53
73509;SHT30;72120;54.964;73.444;2023-08-31T04:58:08;22.86;54.39
73509;SHT30;72120;54.964;73.444;2023-08-31T05:00:36;22.87;54.84
73509;SHT30;72120;54.964;73.444;2023-08-31T05:03:02;22.93;57.53
73509;SHT30;72120;54.964;73.444;2023-08-31T05:05:28;22.97;53.03
73509;SHT30;72120;54.964;73.444;2023-08-31T05:07:54;23.04;55.09
73509;SHT30;72120;54.964;73.444;2023-08-31T05:10:20;23.03;52.96
73509;SHT30;72120;54.964;73.444;2023-08-31T05:12:47;23.00;53.31
73509;SHT30;72120;54.964;73.444;2023-08-31T05:15:13;22.97;52.92
73509;SHT30;72120;54.964;73.444;2023-08-31T05:17:39;22.93;53.24
73509;SHT30;72120;54.964;73.444;2023-08-31T05:20:06;22.86;52.21
73509;SHT30;72120;54.964;73.444;2023-08-31T05:22:34;22.73;54.56
73509;SHT30;72120;54.964;73.444;2023-08-31T05:25:00;22.76;53.08
73509;SHT30;72120;54.964;73.444;2023-08-31T05:27:26;22.67;55.31
73509;SHT30;72120;54.964;73.444;2023-08-31T05:29:53;22.71;52.70
73509;SHT30;72120;54.964;73.444;2023-08-31T05:32:19;22.89;53.41
73509;SHT30;72120;54.964;73.444;2023-08-31T05:34:45;22.90;56.03
73509;SHT30;72120;54.964;73.444;2023-08-31T05:37:11;22.96;52.11
73509;SHT30;72120;54.964;73.444;2023-08-31T05:39:37;22.79;52.78
73509;SHT30;72120;54.964;73.444;2023-08-31T05:42:04;22.83;50.47
73509;SHT30;72120;54.964;73.444;2023-08-31T05:44:30;22.74;54.25
73509;SHT30;72120;54.964;73.444;2023-08-31T05:46:56;23.04;52.06
73509;SHT30;72120;54.964;73.444;2023-08-31T05:49:23;23.17;50.59
73509;SHT30;72120;54.964;73.444;2023-08-31T05:51:49;23.24;48.59
73509;SHT30;72120;54.964;73.444;2023-08-31T05:54:16;23.35;49.49
73509;SHT30;72120;54.964;73.444;2023-08-31T05:56:42;23.34;48.95
73509;SHT30;72120;54.964;73.444;2023-08-31T05:59:09;23.21;49.61
73509;SHT30;72120;54.964;73.444;2023-08-31T06:01:35;23.35;48.93
73509;SHT30;72120;54.964;73.444;2023-08-31T06:04:04;23.14;49.16
73509;SHT30;72120;54.964;73.444;2023-08-31T06:06:31;23.24;52.06
73509;SHT30;72120;54.964;73.444;2023-08-31T06:08:59;23.47;51.50
73509;SHT30;72120;54.964;73.444;2023-08-31T06:11:25;23.45;50.95
73509;SHT30;72120;54.964;73.444;2023-08-31T06:13:51;23.50;50.38
73509;SHT30;72120;54.964;73.444;2023-08-31T06:16:17;23.47;48.75
73509;SHT30;72120;54.964;73.444;2023-08-31T06:18:43;23.32;48.63
73509;SHT30;72120;54.964;73.444;2023-08-31T06:21:09;23.37;48.26
73509;SHT30;72120;54.964;73.444;2023-08-31T06:23:36;23.06;49.60
73509;SHT30;72120;54.964;73.444;2023-08-31T06:26:02;23.10;48.64
73509;SHT30;72120;54.964;73.444;2023-08-31T06:28:29;23.22;48.85
73509;SHT30;72120;54.964;73.444;2023-08-31T06:30:55;23.12;51.13
73509;SHT30;72120;54.964;73.444;2023-08-31T06:33:21;23.20;49.92
73509;SHT30;72120;54.964;73.444;2023-08-31T06:35:47;23.20;50.09
73509;SHT30;72120;54.964;73.444;2023-08-31T06:38:14;23.14;49.73
73509;SHT30;72120;54.964;73.444;2023-08-31T06:40:42;23.07;51.13
73509;SHT30;72120;54.964;73.444;2023-08-31T06:43:11;23.12;51.26
73509;SHT30;72120;54.964;73.444;2023-08-31T06:45:37;23.24;47.70
73509;SHT30;72120;54.964;73.444;2023-08-31T06:48:03;23.37;47.84
73509;SHT30;72120;54.964;73.444;2023-08-31T06:50:30;23.34;47.82
73509;SHT30;72120;54.964;73.444;2023-08-31T06:52:56;23.35;47.77
73509;SHT30;72120;54.964;73.444;2023-08-31T06:55:22;22.90;47.92
73509;SHT30;72120;54.964;73.444;2023-08-31T06:57:49;23.08;49.02
73509;SHT30;72120;54.964;73.444;2023-08-31T07:00:15;23.14;48.42
73509;SHT30;72120;54.964;73.444;2023-08-31T07:02:41;22.93;48.19
73509;SHT30;72120;54.964;73.444;2023-08-31T07:05:09;22.59;49.59
73509;SHT30;72120;54.964;73.444;2023-08-31T07:07:36;22.32;49.96
73509;SHT30;72120;54.964;73.444;2023-08-31T07:10:02;22.32;50.01
73509;SHT30;72120;54.964;73.444;2023-08-31T07:12:29;22.35;49.53
73509;SHT30;72120;54.964;73.444;2023-08-31T07:14:56;22.22;50.33
73509;SHT30;72120;54.964;73.444;2023-08-31T07:17:22;22.13;50.79
73509;SHT30;72120;54.964;73.444;2023-08-31T07:19:48;22.08;50.95
73509;SHT30;72120;54.964;73.444;2023-08-31T07:22:14;21.91;52.08
73509;SHT30;72120;54.964;73.444;2023-08-31T07:24:40;21.88;51.84
73509;SHT30;72120;54.964;73.444;2023-08-31T07:27:08;21.89;53.22
73509;SHT30;72120;54.964;73.444;2023-08-31T07:29:34;21.99;52.43
73509;SHT30;72120;54.964;73.444;2023-08-31T07:32:01;22.13;52.29
73509;SHT30;72120;54.964;73.444;2023-08-31T07:34:27;22.50;51.98
73509;SHT30;72120;54.964;73.444;2023-08-31T07:36:54;22.52;51.80
73509;SHT30;72120;54.964;73.444;2023-08-31T07:39:20;22.33;52.26
73509;SHT30;72120;54.964;73.444;2023-08-31T07:41:46;22.28;52.94
73509;SHT30;72120;54.964;73.444;2023-08-31T07:44:13;22.29;51.93
73509;SHT30;72120;54.964;73.444;2023-08-31T07:46:41;22.37;52.63
73509;SHT30;72120;54.964;73.444;2023-08-31T07:49:08;22.33;51.57
73509;SHT30;72120;54.964;73.444;2023-08-31T07:51:34;22.26;50.59
73509;SHT30;72120;54.964;73.444;2023-08-31T07:54:00;22.29;51.20
73509;SHT30;72120;54.964;73.444;2023-08-31T07:56:29;22.28;51.76
73509;SHT30;72120;54.964;73.444;2023-08-31T07:58:57;22.06;51.95
73509;SHT30;72120;54.964;73.444;2023-08-31T08:01:24;21.86;51.59
73509;SHT30;72120;54.964;73.444;2023-08-31T08:03:50;21.82;52.36
73509;SHT30;72120;54.964;73.444;2023-08-31T08:06:16;21.88;52.59
73509;SHT30;72120;54.964;73.444;2023-08-31T08:08:42;21.86;52.47
73509;SHT30;72120;54.964;73.444;2023-08-31T08:11:08;21.79;53.12
73509;SHT30;72120;54.964;73.444;2023-08-31T08:13:34;21.61;53.17
73509;SHT30;72120;54.964;73.444;2023-08-31T08:16:01;21.47;54.28
73509;SHT30;72120;54.964;73.444;2023-08-31T08:18:27;21.20;53.95
73509;SHT30;72120;54.964;73.444;2023-08-31T08:20:53;20.99;55.05
73509;SHT30;72120;54.964;73.444;2023-08-31T08:23:19;21.01;55.41
73509;SHT30;72120;54.964;73.444;2023-08-31T08:25:49;20.99;55.49
73509;SHT30;72120;54.964;73.444;2023-08-31T08:28:15;21.03;55.48
73509;SHT30;72120;54.964;73.444;2023-08-31T08:30:42;21.08;54.97
73509;SHT30;72120;54.964;73.444;2023-08-31T08:33:08;21.20;54.80
73509;SHT30;72120;54.964;73.444;2023-08-31T08:35:37;21.31;54.43
73509;SHT30;72120;54.964;73.444;2023-08-31T08:38:04;21.45;54.17
73509;SHT30;72120;54.964;73.444;2023-08-31T08:40:31;21.48;53.35
73509;SHT30;72120;54.964;73.444;2023-08-31T08:43:00;21.51;53.04
73509;SHT30;72120;54.964;73.444;2023-08-31T08:45:32;21.52;53.20
73509;SHT30;72120;54.964;73.444;2023-08-31T08:47:59;21.45;54.16
73509;SHT30;72120;54.964;73.444;2023-08-31T08:50:26;21.34;53.34
73509;SHT30;72120;54.964;73.444;2023-08-31T08:52:54;21.24;52.59
73509;SHT30;72120;54.964;73.444;2023-08-31T08:55:21;21.21;53.64
73509;SHT30;72120;54.964;73.444;2023-08-31T08:57:48;21.06;53.95
73509;SHT30;72120;54.964;73.444;2023-08-31T09:00:14;20.80;54.20
73509;SHT30;72120;54.964;73.444;2023-08-31T09:02:41;20.69;53.77
73509;SHT30;72120;54.964;73.444;2023-08-31T09:05:07;20.67;55.08
73509;SHT30;72120;54.964;73.444;2023-08-31T09:07:37;20.52;55.04
73509;SHT30;72120;54.964;73.444;2023-08-31T09:10:04;20.36;55.54
73509;SHT30;72120;54.964;73.444;2023-08-31T09:12:30;20.42;55.96
73509;SHT30;72120;54.964;73.444;2023-08-31T09:15:01;20.52;55.45
73509;SHT30;72120;54.964;73.444;2023-08-31T09:17:39;20.39;56.50
73509;SHT30;72120;54.964;73.444;2023-08-31T09:20:07;20.28;56.21
73509;SHT30;72120;54.964;73.444;2023-08-31T09:22:33;20.29;56.14
73509;SHT30;72120;54.964;73.444;2023-08-31T09:25:00;20.28;56.74
73509;SHT30;72120;54.964;73.444;2023-08-31T09:27:26;20.19;57.00
73509;SHT30;72120;54.964;73.444;2023-08-31T09:30:01;20.08;57.05
73509;SHT30;72120;54.964;73.444;2023-08-31T09:32:35;20.05;56.80
73509;SHT30;72120;54.964;73.444;2023-08-31T09:35:03;20.08;56.62
73509;SHT30;72120;54.964;73.444;2023-08-31T09:37:29;20.05;57.72
73509;SHT30;72120;54.964;73.444;2023-08-31T09:39:55;20.11;57.68
73509;SHT30;72120;54.964;73.444;2023-08-31T09:42:22;20.15;57.16
73509;SHT30;72120;54.964;73.444;2023-08-31T09:44:49;20.19;56.50
73509;SHT30;72120;54.964;73.444;2023-08-31T09:47:17;20.28;56.23
73509;SHT30;72120;54.964;73.444;2023-08-31T09:49:43;20.36;56.77
73509;SHT30;72120;54.964;73.444;2023-08-31T09:52:11;20.37;55.76
73509;SHT30;72120;54.964;73.444;2023-08-31T09:54:39;20.46;56.13
73509;SHT30;72120;54.964;73.444;2023-08-31T09:57:05;20.45;56.21
73509;SHT30;72120;54.964;73.444;2023-08-31T09:59:32;20.53;56.47
73509;SHT30;72120;54.964;73.444;2023-08-31T10:02:00;20.50;56.18
73509;SHT30;72120;54.964;73.444;2023-08-31T10:04:29;20.52;57.00
73509;SHT30;72120;54.964;73.444;2023-08-31T10:06:56;20.33;56.63
73509;SHT30;72120;54.964;73.444;2023-08-31T10:09:22;20.26;56.97
73509;SHT30;72120;54.964;73.444;2023-08-31T10:12:05;20.36;56.75
73509;SHT30;72120;54.964;73.444;2023-08-31T10:14:32;20.46;56.64
73509;SHT30;72120;54.964;73.444;2023-08-31T10:16:58;20.55;56.68
73509;SHT30;72120;54.964;73.444;2023-08-31T10:19:27;20.65;56.81
73509;SHT30;72120;54.964;73.444;2023-08-31T10:21:53;20.73;56.38
73509;SHT30;72120;54.964;73.444;2023-08-31T10:24:58;20.75;56.28
73509;SHT30;72120;54.964;73.444;2023-08-31T10:27:27;20.70;56.05
73509;SHT30;72120;54.964;73.444;2023-08-31T10:29:53;20.65;56.80
73509;SHT30;72120;54.964;73.444;2023-08-31T10:32:20;20.59;55.92
73509;SHT30;72120;54.964;73.444;2023-08-31T10:35:07;20.53;56.13
73509;SHT30;72120;54.964;73.444;2023-08-31T10:37:33;20.45;56.53
73509;SHT30;72120;54.964;73.444;2023-08-31T10:40:12;20.39;56.63
73509;SHT30;72120;54.964;73.444;2023-08-31T10:42:45;20.36;56.52
73509;SHT30;72120;54.964;73.444;2023-08-31T10:45:13;20.39;55.84
73509;SHT30;72120;54.964;73.444;2023-08-31T10:47:40;20.40;55.98
73509;SHT30;72120;54.964;73.444;2023-08-31T10:50:19;20.45;55.50
73509;SHT30;72120;54.964;73.444;2023-08-31T10:52:45;20.47;55.49
73509;SHT30;72120;54.964;73.444;2023-08-31T10:55:12;20.46;55.69
73509;SHT30;72120;54.964;73.444;2023-08-31T10:57:38;20.47;55.34
73509;SHT30;72120;54.964;73.444;2023-08-31T11:00:05;20.50;55.54
73509;SHT30;72120;54.964;73.444;2023-08-31T11:05:14;20.36;55.74
73509;SHT30;72120;54.964;73.444;2023-08-31T11:07:43;20.35;55.20
73509;SHT30;72120;54.964;73.444;2023-08-31T11:12:40;20.59;55.18
73509;SHT30;72120;54.964;73.444;2023-08-31T11:15:07;20.63;55.31
73509;SHT30;72120;54.964;73.444;2023-08-31T11:17:34;20.65;56.07
73509;SHT30;72120;54.964;73.444;2023-08-31T11:20:01;20.66;54.96
73509;SHT30;72120;54.964;73.444;2023-08-31T11:22:31;20.76;55.24
73509;SHT30;72120;54.964;73.444;2023-08-31T11:24:58;20.76;55.19
73509;SHT30;72120;54.964;73.444;2023-08-31T11:27:25;20.84;55.07
73509;SHT30;72120;54.964;73.444;2023-08-31T11:29:51;20.83;55.66
73509;SHT30;72120;54.964;73.444;2023-08-31T11:32:17;20.86;54.83
73509;SHT30;72120;54.964;73.444;2023-08-31T11:34:44;20.89;55.43
73509;SHT30;72120;54.964;73.444;2023-08-31T11:37:13;20.99;56.12
73509;SHT30;72120;54.964;73.444;2023-08-31T11:39:52;20.97;54.86
73509;SHT30;72120;54.964;73.444;2023-08-31T11:42:20;20.96;55.05
73509;SHT30;72120;54.964;73.444;2023-08-31T11:44:51;20.93;54.97
73509;SHT30;72120;54.964;73.444;2023-08-31T11:47:19;20.99;55.23
73509;SHT30;72120;54.964;73.444;2023-08-31T11:49:46;21.03;55.05
73509;SHT30;72120;54.964;73.444;2023-08-31T11:52:13;20.97;53.90
73509;SHT30;72120;54.964;73.444;2023-08-31T11:54:41;20.93;53.42
73509;SHT30;72120;54.964;73.444;2023-08-31T11:57:08;20.94;53.99
73509;SHT30;72120;54.964;73.444;2023-08-31T11:59:36;20.94;54.05
73509;SHT30;72120;54.964;73.444;2023-08-31T12:02:06;20.83;54.13
73509;SHT30;72120;54.964;73.444;2023-08-31T12:04:43;20.69;54.38
73509;SHT30;72120;54.964;73.444;2023-08-31T12:07:10;20.56;54.58
73509;SHT30;72120;54.964;73.444;2023-08-31T12:09:40;20.36;55.01
73509;SHT30;72120;54.964;73.444;2023-08-31T12:12:07;20.33;56.38
73509;SHT30;72120;54.964;73.444;2023-08-31T12:14:37;20.28;55.44
73509;SHT30;72120;54.964;73.444;2023-08-31T12:17:08;20.30;55.41
73509;SHT30;72120;54.964;73.444;2023-08-31T12:19:38;20.39;55.83
73509;SHT30;72120;54.964;73.444;2023-08-31T12:22:07;20.36;56.24
73509;SHT30;72120;54.964;73.444;2023-08-31T12:24:39;20.28;56.48
73509;SHT30;72120;54.964;73.444;2023-08-31T12:27:09;20.26;56.23
73509;SHT30;72120;54.964;73.444;2023-08-31T12:29:37;20.19;56.61
73509;SHT30;72120;54.964;73.444;2023-08-31T12:32:04;20.18;56.03
73509;SHT30;72120;54.964;73.444;2023-08-31T12:34:31;20.08;56.62
73509;SHT30;72120;54.964;73.444;2023-08-31T12:36:57;20.13;56.97
73509;SHT30;72120;54.964;73.444;2023-08-31T12:39:28;20.19;58.93
73509;SHT30;72120;54.964;73.444;2023-08-31T12:41:54;20.23;57.47
73509;SHT30;72120;54.964;73.444;2023-08-31T12:44:21;20.28;56.96
73509;SHT30;72120;54.964;73.444;2023-08-31T12:46:47;20.25;57.09
73509;SHT30;72120;54.964;73.444;2023-08-31T12:49:13;20.29;56.98
73509;SHT30;72120;54.964;73.444;2023-08-31T12:51:42;20.26;56.91
73509;SHT30;72120;54.964;73.444;2023-08-31T12:54:09;20.29;56.67
73509;SHT30;72120;54.964;73.444;2023-08-31T12:56:35;20.28;56.79
73509;SHT30;72120;54.964;73.444;2023-08-31T12:59:01;20.28;56.73
73509;SHT30;72120;54.964;73.444;2023-08-31T13:01:27;20.22;56.84
73509;SHT30;72120;54.964;73.444;2023-08-31T13:03:56;20.16;56.25
73509;SHT30;72120;54.964;73.444;2023-08-31T13:06:22;20.11;55.93
73509;SHT30;72120;54.964;73.444;2023-08-31T13:08:50;20.01;56.76
73509;SHT30;72120;54.964;73.444;2023-08-31T13:11:16;19.94;57.38
73509;SHT30;72120;54.964;73.444;2023-08-31T13:13:49;19.75;59.49
73509;SHT30;72120;54.964;73.444;2023-08-31T13:16:17;19.55;60.65
73509;SHT30;72120;54.964;73.444;2023-08-31T13:18:43;19.40;61.76
73509;SHT30;72120;54.964;73.444;2023-08-31T13:21:09;19.31;61.03
73509;SHT30;72120;54.964;73.444;2023-08-31T13:23:38;19.26;59.15
73509;SHT30;72120;54.964;73.444;2023-08-31T13:26:06;19.23;58.91
73509;SHT30;72120;54.964;73.444;2023-08-31T13:28:32;19.26;59.12
73509;SHT30;72120;54.964;73.444;2023-08-31T13:30:58;19.20;59.65
73509;SHT30;72120;54.964;73.444;2023-08-31T13:33:27;19.13;59.26
73509;SHT30;72120;54.964;73.444;2023-08-31T13:35:59;19.03;59.04
73509;SHT30;72120;54.964;73.444;2023-08-31T13:38:26;18.93;58.24
73509;SHT30;72120;54.964;73.444;2023-08-31T13:40:56;18.87;58.18
73509;SHT30;72120;54.964;73.444;2023-08-31T13:43:23;18.82;57.41
73509;SHT30;72120;54.964;73.444;2023-08-31T13:45:50;18.69;57.73
73509;SHT30;72120;54.964;73.444;2023-08-31T13:48:16;18.56;57.64
73509;SHT30;72120;54.964;73.444;2023-08-31T13:50:42;18.53;57.43
73509;SHT30;72120;54.964;73.444;2023-08-31T13:53:09;18.42;58.58
73509;SHT30;72120;54.964;73.444;2023-08-31T13:55:35;18.22;58.61
73509;SHT30;72120;54.964;73.444;2023-08-31T13:58:05;18.15;58.54
73509;SHT30;72120;54.964;73.444;2023-08-31T14:00:36;18.11;58.48
73509;SHT30;72120;54.964;73.444;2023-08-31T14:03:04;18.01;59.34
73509;SHT30;72120;54.964;73.444;2023-08-31T14:05:31;17.98;59.87
73509;SHT30;72120;54.964;73.444;2023-08-31T14:07:58;17.94;59.47
73509;SHT30;72120;54.964;73.444;2023-08-31T14:10:27;17.94;58.77
73509;SHT30;72120;54.964;73.444;2023-08-31T14:12:53;17.95;59.55
73509;SHT30;72120;54.964;73.444;2023-08-31T14:15:19;17.92;59.89
73509;SHT30;72120;54.964;73.444;2023-08-31T14:17:45;17.90;59.79
73509;SHT30;72120;54.964;73.444;2023-08-31T14:20:12;17.88;59.67
73509;SHT30;72120;54.964;73.444;2023-08-31T14:22:38;17.87;59.84
73509;SHT30;72120;54.964;73.444;2023-08-31T14:25:12;17.75;60.32
73509;SHT30;72120;54.964;73.444;2023-08-31T14:27:39;17.64;60.39
73509;SHT30;72120;54.964;73.444;2023-08-31T14:30:05;17.58;60.94
73509;SHT30;72120;54.964;73.444;2023-08-31T14:32:32;17.50;61.87
73509;SHT30;72120;54.964;73.444;2023-08-31T14:34:58;17.43;62.70
73509;SHT30;72120;54.964;73.444;2023-08-31T14:37:25;17.36;62.58
73509;SHT30;72120;54.964;73.444;2023-08-31T14:39:52;17.34;63.12
73509;SHT30;72120;54.964;73.444;2023-08-31T14:42:18;17.30;63.22
73509;SHT30;72120;54.964;73.444;2023-08-31T14:44:47;17.24;63.52
73509;SHT30;72120;54.964;73.444;2023-08-31T14:47:14;17.22;63.66
73509;SHT30;72120;54.964;73.444;2023-08-31T14:49:41;17.16;63.49
73509;SHT30;72120;54.964;73.444;2023-08-31T14:52:07;17.22;64.04
73509;SHT30;72120;54.964;73.444;2023-08-31T14:54:34;17.24;64.31
73509;SHT30;72120;54.964;73.444;2023-08-31T14:57:00;17.24;64.10
73509;SHT30;72120;54.964;73.444;2023-08-31T14:59:27;17.26;64.57
73509;SHT30;72120;54.964;73.444;2023-08-31T15:01:56;17.15;64.08
73509;SHT30;72120;54.964;73.444;2023-08-31T15:04:23;17.06;64.49
73509;SHT30;72120;54.964;73.444;2023-08-31T15:07:03;16.92;65.29
73509;SHT30;72120;54.964;73.444;2023-08-31T15:09:29;16.89;63.90
73509;SHT30;72120;54.964;73.444;2023-08-31T15:11:58;16.75;65.01
73509;SHT30;72120;54.964;73.444;2023-08-31T15:14:25;16.69;63.89
73509;SHT30;72120;54.964;73.444;2023-08-31T15:16:51;16.59;62.40
73509;SHT30;72120;54.964;73.444;2023-08-31T15:19:17;16.62;63.20
73509;SHT30;72120;54.964;73.444;2023-08-31T15:21:43;16.56;63.56
73509;SHT30;72120;54.964;73.444;2023-08-31T15:24:09;16.55;62.60
73509;SHT30;72120;54.964;73.444;2023-08-31T15:26:37;16.48;64.61
73509;SHT30;72120;54.964;73.444;2023-08-31T15:29:03;16.42;62.48
73509;SHT30;72120;54.964;73.444;2023-08-31T15:31:29;16.39;63.56
73509;SHT30;72120;54.964;73.444;2023-08-31T15:33:56;16.33;62.94